Terminal Aerodrome Forecast
Issued by NWS

Home | Current Version | Previous Version | Text Only | Print | Product List | Glossary On
Versions: 1 2 3 4 5 6 7 8 9 10 11 12 13 14 15
000
FTUS43 KBIS 190500
TAFMOT
TAF
KMOT 190540Z 1906/2006 10008KT P6SM VCFG SCT050 SCT110
      TEMPO 1906/1907 3SM BR OVC050
     FM190730 27015G24KT P6SM VCSH SCT015 BKN035 OVC050
     FM191000 25016G23KT P6SM FEW050
     FM191400 27022G31KT P6SM SKC
     FM200000 28011KT P6SM SKC
     FM200300 VRB03KT P6SM SKC=

USA.gov is the U.S. government's official web portal to all federal, state and local government web resources and services.